sensor_id;sensor_type;location;lat;lon;timestamp;P1;durP1;ratioP1;P2;durP2;ratioP2
76693;SDS011;69667;52.136;5.424;2023-06-19T00:00:28;8.77;;;6.82;;
76693;SDS011;69667;52.136;5.424;2023-06-19T00:02:56;9.95;;;6.30;;
76693;SDS011;69667;52.136;5.424;2023-06-19T00:05:23;9.05;;;6.95;;
76693;SDS011;69667;52.136;5.424;2023-06-19T00:07:51;7.90;;;5.85;;
76693;SDS011;69667;52.136;5.424;2023-06-19T00:10:18;8.35;;;6.43;;
76693;SDS011;69667;52.136;5.424;2023-06-19T00:12:44;9.70;;;7.07;;
76693;SDS011;69667;52.136;5.424;2023-06-19T00:15:11;9.45;;;7.18;;
76693;SDS011;69667;52.136;5.424;2023-06-19T00:17:38;9.60;;;6.32;;
76693;SDS011;69667;52.136;5.424;2023-06-19T00:20:05;10.07;;;6.72;;
76693;SDS011;69667;52.136;5.424;2023-06-19T00:22:32;11.38;;;7.30;;
76693;SDS011;69667;52.136;5.424;2023-06-19T00:24:58;12.25;;;7.00;;
76693;SDS011;69667;52.136;5.424;2023-06-19T00:27:25;8.88;;;7.22;;
76693;SDS011;69667;52.136;5.424;2023-06-19T00:29:53;11.18;;;7.53;;
76693;SDS011;69667;52.136;5.424;2023-06-19T00:32:19;8.50;;;6.85;;
76693;SDS011;69667;52.136;5.424;2023-06-19T00:34:46;8.77;;;6.70;;
76693;SDS011;69667;52.136;5.424;2023-06-19T00:37:13;9.63;;;7.72;;
76693;SDS011;69667;52.136;5.424;2023-06-19T00:39:39;11.02;;;7.75;;
76693;SDS011;69667;52.136;5.424;2023-06-19T00:42:10;9.15;;;5.95;;
76693;SDS011;69667;52.136;5.424;2023-06-19T00:44:37;8.52;;;6.68;;
76693;SDS011;69667;52.136;5.424;2023-06-19T00:47:03;10.63;;;7.63;;
76693;SDS011;69667;52.136;5.424;2023-06-19T00:49:30;8.52;;;6.95;;
76693;SDS011;69667;52.136;5.424;2023-06-19T00:51:57;8.95;;;6.70;;
76693;SDS011;69667;52.136;5.424;2023-06-19T00:54:24;8.55;;;6.40;;
76693;SDS011;69667;52.136;5.424;2023-06-19T00:56:51;11.57;;;6.63;;
76693;SDS011;69667;52.136;5.424;2023-06-19T00:59:20;9.63;;;5.70;;
76693;SDS011;69667;52.136;5.424;2023-06-19T01:01:46;9.30;;;5.68;;
76693;SDS011;69667;52.136;5.424;2023-06-19T01:04:13;7.18;;;5.85;;
76693;SDS011;69667;52.136;5.424;2023-06-19T01:06:45;7.20;;;4.82;;
76693;SDS011;69667;52.136;5.424;2023-06-19T01:09:17;5.85;;;4.43;;
76693;SDS011;69667;52.136;5.424;2023-06-19T01:11:49;6.28;;;4.82;;
76693;SDS011;69667;52.136;5.424;2023-06-19T01:14:20;7.07;;;4.60;;
76693;SDS011;69667;52.136;5.424;2023-06-19T01:16:51;7.53;;;4.00;;
76693;SDS011;69667;52.136;5.424;2023-06-19T01:19:19;5.85;;;3.83;;
76693;SDS011;69667;52.136;5.424;2023-06-19T01:24:14;5.07;;;3.45;;
76693;SDS011;69667;52.136;5.424;2023-06-19T01:26:40;4.65;;;3.35;;
76693;SDS011;69667;52.136;5.424;2023-06-19T01:29:08;4.95;;;2.85;;
76693;SDS011;69667;52.136;5.424;2023-06-19T01:31:41;4.38;;;3.17;;
76693;SDS011;69667;52.136;5.424;2023-06-19T01:34:17;5.28;;;3.03;;
76693;SDS011;69667;52.136;5.424;2023-06-19T01:36:46;4.20;;;2.90;;
76693;SDS011;69667;52.136;5.424;2023-06-19T01:39:16;7.05;;;2.70;;
76693;SDS011;69667;52.136;5.424;2023-06-19T01:41:44;5.10;;;2.42;;
76693;SDS011;69667;52.136;5.424;2023-06-19T01:44:12;6.05;;;2.28;;
76693;SDS011;69667;52.136;5.424;2023-06-19T01:46:39;3.88;;;2.10;;
76693;SDS011;69667;52.136;5.424;2023-06-19T01:49:07;4.63;;;2.13;;
76693;SDS011;69667;52.136;5.424;2023-06-19T01:51:35;3.88;;;2.10;;
76693;SDS011;69667;52.136;5.424;2023-06-19T01:54:02;3.90;;;2.03;;
76693;SDS011;69667;52.136;5.424;2023-06-19T01:58:57;2.42;;;1.52;;
76693;SDS011;69667;52.136;5.424;2023-06-19T02:01:23;3.00;;;1.63;;
76693;SDS011;69667;52.136;5.424;2023-06-19T02:03:50;3.22;;;1.80;;
76693;SDS011;69667;52.136;5.424;2023-06-19T02:06:16;3.85;;;2.15;;
76693;SDS011;69667;52.136;5.424;2023-06-19T02:08:43;4.20;;;1.83;;
76693;SDS011;69667;52.136;5.424;2023-06-19T02:11:10;3.53;;;1.98;;
76693;SDS011;69667;52.136;5.424;2023-06-19T02:13:36;3.58;;;2.10;;
76693;SDS011;69667;52.136;5.424;2023-06-19T02:16:05;3.58;;;1.98;;
76693;SDS011;69667;52.136;5.424;2023-06-19T02:18:32;3.58;;;2.08;;
76693;SDS011;69667;52.136;5.424;2023-06-19T02:20:58;4.88;;;2.10;;
76693;SDS011;69667;52.136;5.424;2023-06-19T02:23:25;5.18;;;1.80;;
76693;SDS011;69667;52.136;5.424;2023-06-19T02:25:52;5.90;;;2.28;;
76693;SDS011;69667;52.136;5.424;2023-06-19T02:28:18;3.00;;;2.00;;
76693;SDS011;69667;52.136;5.424;2023-06-19T02:30:45;3.55;;;2.25;;
76693;SDS011;69667;52.136;5.424;2023-06-19T02:33:11;3.60;;;2.10;;
76693;SDS011;69667;52.136;5.424;2023-06-19T02:35:39;4.28;;;2.10;;
76693;SDS011;69667;52.136;5.424;2023-06-19T02:40:34;3.88;;;2.22;;
76693;SDS011;69667;52.136;5.424;2023-06-19T02:43:00;4.25;;;2.33;;
76693;SDS011;69667;52.136;5.424;2023-06-19T02:45:27;4.95;;;2.05;;
76693;SDS011;69667;52.136;5.424;2023-06-19T02:47:53;4.00;;;2.70;;
76693;SDS011;69667;52.136;5.424;2023-06-19T02:50:20;4.47;;;2.40;;
76693;SDS011;69667;52.136;5.424;2023-06-19T02:52:47;3.63;;;2.05;;
76693;SDS011;69667;52.136;5.424;2023-06-19T02:55:14;3.70;;;2.25;;
76693;SDS011;69667;52.136;5.424;2023-06-19T02:57:40;4.15;;;2.35;;
76693;SDS011;69667;52.136;5.424;2023-06-19T03:00:08;4.07;;;2.40;;
76693;SDS011;69667;52.136;5.424;2023-06-19T03:02:36;4.00;;;2.65;;
76693;SDS011;69667;52.136;5.424;2023-06-19T03:05:03;6.45;;;2.47;;
76693;SDS011;69667;52.136;5.424;2023-06-19T03:07:29;6.32;;;2.55;;
76693;SDS011;69667;52.136;5.424;2023-06-19T03:09:56;4.00;;;2.40;;
76693;SDS011;69667;52.136;5.424;2023-06-19T03:12:23;4.20;;;2.50;;
76693;SDS011;69667;52.136;5.424;2023-06-19T03:14:49;3.92;;;2.70;;
76693;SDS011;69667;52.136;5.424;2023-06-19T03:17:16;4.40;;;2.45;;
76693;SDS011;69667;52.136;5.424;2023-06-19T03:19:43;4.93;;;3.10;;
76693;SDS011;69667;52.136;5.424;2023-06-19T03:22:09;5.82;;;2.78;;
76693;SDS011;69667;52.136;5.424;2023-06-19T03:24:36;4.03;;;3.10;;
76693;SDS011;69667;52.136;5.424;2023-06-19T03:27:14;4.53;;;2.92;;
76693;SDS011;69667;52.136;5.424;2023-06-19T03:29:40;5.20;;;2.90;;
76693;SDS011;69667;52.136;5.424;2023-06-19T03:32:09;5.22;;;3.20;;
76693;SDS011;69667;52.136;5.424;2023-06-19T03:34:36;4.25;;;2.85;;
76693;SDS011;69667;52.136;5.424;2023-06-19T03:37:06;4.32;;;3.30;;
76693;SDS011;69667;52.136;5.424;2023-06-19T03:39:33;4.45;;;3.45;;
76693;SDS011;69667;52.136;5.424;2023-06-19T03:42:05;4.88;;;3.15;;
76693;SDS011;69667;52.136;5.424;2023-06-19T03:44:31;4.65;;;3.13;;
76693;SDS011;69667;52.136;5.424;2023-06-19T03:46:58;5.38;;;3.35;;
76693;SDS011;69667;52.136;5.424;2023-06-19T03:49:24;4.38;;;3.38;;
76693;SDS011;69667;52.136;5.424;2023-06-19T03:51:52;4.85;;;3.65;;
76693;SDS011;69667;52.136;5.424;2023-06-19T03:54:20;7.82;;;3.40;;
76693;SDS011;69667;52.136;5.424;2023-06-19T03:56:47;4.75;;;3.60;;
76693;SDS011;69667;52.136;5.424;2023-06-19T03:59:14;7.45;;;4.43;;
76693;SDS011;69667;52.136;5.424;2023-06-19T04:01:40;7.82;;;4.57;;
76693;SDS011;69667;52.136;5.424;2023-06-19T04:04:08;6.43;;;4.35;;
76693;SDS011;69667;52.136;5.424;2023-06-19T04:06:35;8.77;;;6.53;;
76693;SDS011;69667;52.136;5.424;2023-06-19T04:09:01;9.00;;;6.15;;
76693;SDS011;69667;52.136;5.424;2023-06-19T04:11:28;9.20;;;6.70;;
76693;SDS011;69667;52.136;5.424;2023-06-19T04:13:56;7.95;;;5.90;;
76693;SDS011;69667;52.136;5.424;2023-06-19T04:16:22;8.27;;;5.97;;
76693;SDS011;69667;52.136;5.424;2023-06-19T04:18:49;9.73;;;6.32;;
76693;SDS011;69667;52.136;5.424;2023-06-19T04:21:15;11.15;;;6.53;;
76693;SDS011;69667;52.136;5.424;2023-06-19T04:23:42;10.00;;;7.10;;
76693;SDS011;69667;52.136;5.424;2023-06-19T04:26:09;10.75;;;6.90;;
76693;SDS011;69667;52.136;5.424;2023-06-19T04:28:35;11.45;;;8.07;;
76693;SDS011;69667;52.136;5.424;2023-06-19T04:31:02;11.43;;;7.72;;
76693;SDS011;69667;52.136;5.424;2023-06-19T04:33:28;11.88;;;8.10;;
76693;SDS011;69667;52.136;5.424;2023-06-19T04:35:56;12.45;;;8.13;;
76693;SDS011;69667;52.136;5.424;2023-06-19T04:38:22;11.10;;;8.55;;
76693;SDS011;69667;52.136;5.424;2023-06-19T04:40:50;12.20;;;8.52;;
76693;SDS011;69667;52.136;5.424;2023-06-19T04:43:17;14.85;;;9.35;;
76693;SDS011;69667;52.136;5.424;2023-06-19T04:45:44;12.13;;;7.80;;
76693;SDS011;69667;52.136;5.424;2023-06-19T04:48:11;12.27;;;8.52;;
76693;SDS011;69667;52.136;5.424;2023-06-19T04:50:37;14.88;;;8.20;;
76693;SDS011;69667;52.136;5.424;2023-06-19T04:53:04;10.32;;;8.02;;
76693;SDS011;69667;52.136;5.424;2023-06-19T04:55:32;12.40;;;7.85;;
76693;SDS011;69667;52.136;5.424;2023-06-19T04:57:58;8.93;;;5.78;;
76693;SDS011;69667;52.136;5.424;2023-06-19T05:00:25;6.95;;;5.07;;
76693;SDS011;69667;52.136;5.424;2023-06-19T05:02:53;6.60;;;3.60;;
76693;SDS011;69667;52.136;5.424;2023-06-19T05:05:20;4.03;;;2.85;;
76693;SDS011;69667;52.136;5.424;2023-06-19T05:07:49;3.38;;;2.42;;
76693;SDS011;69667;52.136;5.424;2023-06-19T05:10:17;3.72;;;2.40;;
76693;SDS011;69667;52.136;5.424;2023-06-19T05:12:43;3.72;;;2.60;;
76693;SDS011;69667;52.136;5.424;2023-06-19T05:15:10;4.93;;;2.50;;
76693;SDS011;69667;52.136;5.424;2023-06-19T05:17:37;6.15;;;3.00;;
76693;SDS011;69667;52.136;5.424;2023-06-19T05:20:05;5.35;;;3.08;;
76693;SDS011;69667;52.136;5.424;2023-06-19T05:22:35;6.55;;;3.33;;
76693;SDS011;69667;52.136;5.424;2023-06-19T05:25:03;4.70;;;3.03;;
76693;SDS011;69667;52.136;5.424;2023-06-19T05:27:29;5.15;;;3.58;;
76693;SDS011;69667;52.136;5.424;2023-06-19T05:29:56;6.20;;;4.53;;
76693;SDS011;69667;52.136;5.424;2023-06-19T05:32:22;5.13;;;4.30;;
76693;SDS011;69667;52.136;5.424;2023-06-19T05:34:49;5.88;;;3.63;;
76693;SDS011;69667;52.136;5.424;2023-06-19T05:37:16;5.18;;;3.90;;
76693;SDS011;69667;52.136;5.424;2023-06-19T05:39:43;5.93;;;3.63;;
76693;SDS011;69667;52.136;5.424;2023-06-19T05:42:09;6.18;;;2.95;;
76693;SDS011;69667;52.136;5.424;2023-06-19T05:44:36;4.72;;;2.60;;
76693;SDS011;69667;52.136;5.424;2023-06-19T05:47:02;3.95;;;2.60;;
76693;SDS011;69667;52.136;5.424;2023-06-19T05:49:29;4.82;;;2.75;;
76693;SDS011;69667;52.136;5.424;2023-06-19T05:51:56;4.25;;;2.65;;
76693;SDS011;69667;52.136;5.424;2023-06-19T05:54:25;4.35;;;2.33;;
76693;SDS011;69667;52.136;5.424;2023-06-19T05:56:52;6.07;;;2.75;;
76693;SDS011;69667;52.136;5.424;2023-06-19T05:59:19;4.90;;;3.13;;
76693;SDS011;69667;52.136;5.424;2023-06-19T06:01:46;5.38;;;3.70;;
76693;SDS011;69667;52.136;5.424;2023-06-19T06:04:13;9.57;;;5.20;;
76693;SDS011;69667;52.136;5.424;2023-06-19T06:06:40;6.88;;;4.78;;
76693;SDS011;69667;52.136;5.424;2023-06-19T06:09:06;7.10;;;4.63;;
76693;SDS011;69667;52.136;5.424;2023-06-19T06:11:37;10.13;;;5.97;;
76693;SDS011;69667;52.136;5.424;2023-06-19T06:14:03;9.43;;;6.72;;
76693;SDS011;69667;52.136;5.424;2023-06-19T06:16:30;9.57;;;5.88;;
76693;SDS011;69667;52.136;5.424;2023-06-19T06:18:57;9.50;;;6.13;;
76693;SDS011;69667;52.136;5.424;2023-06-19T06:21:23;8.45;;;5.72;;
76693;SDS011;69667;52.136;5.424;2023-06-19T06:23:50;9.15;;;6.40;;
76693;SDS011;69667;52.136;5.424;2023-06-19T06:26:16;9.70;;;5.95;;
76693;SDS011;69667;52.136;5.424;2023-06-19T06:28:43;9.98;;;5.20;;
76693;SDS011;69667;52.136;5.424;2023-06-19T06:31:09;11.45;;;5.38;;
76693;SDS011;69667;52.136;5.424;2023-06-19T06:33:36;9.13;;;4.72;;
76693;SDS011;69667;52.136;5.424;2023-06-19T06:36:03;12.82;;;4.20;;
76693;SDS011;69667;52.136;5.424;2023-06-19T06:38:31;8.43;;;4.30;;
76693;SDS011;69667;52.136;5.424;2023-06-19T06:40:58;6.22;;;4.22;;
76693;SDS011;69667;52.136;5.424;2023-06-19T06:43:25;5.30;;;4.03;;
76693;SDS011;69667;52.136;5.424;2023-06-19T06:45:52;6.05;;;4.63;;
76693;SDS011;69667;52.136;5.424;2023-06-19T06:48:18;9.38;;;6.00;;
76693;SDS011;69667;52.136;5.424;2023-06-19T06:50:47;7.22;;;5.25;;
76693;SDS011;69667;52.136;5.424;2023-06-19T06:53:13;5.97;;;4.68;;
76693;SDS011;69667;52.136;5.424;2023-06-19T06:55:40;8.27;;;4.80;;
76693;SDS011;69667;52.136;5.424;2023-06-19T06:58:07;7.53;;;5.70;;
76693;SDS011;69667;52.136;5.424;2023-06-19T07:00:33;8.15;;;5.05;;
76693;SDS011;69667;52.136;5.424;2023-06-19T07:03:00;8.02;;;6.43;;
76693;SDS011;69667;52.136;5.424;2023-06-19T07:05:27;9.43;;;6.53;;
76693;SDS011;69667;52.136;5.424;2023-06-19T07:07:56;10.05;;;6.78;;
76693;SDS011;69667;52.136;5.424;2023-06-19T07:10:22;9.43;;;8.07;;
76693;SDS011;69667;52.136;5.424;2023-06-19T07:12:50;10.40;;;8.27;;
76693;SDS011;69667;52.136;5.424;2023-06-19T07:15:17;11.93;;;7.95;;
76693;SDS011;69667;52.136;5.424;2023-06-19T07:17:44;10.57;;;7.60;;
76693;SDS011;69667;52.136;5.424;2023-06-19T07:20:11;9.13;;;7.68;;
76693;SDS011;69667;52.136;5.424;2023-06-19T07:22:38;12.65;;;8.45;;
76693;SDS011;69667;52.136;5.424;2023-06-19T07:25:05;10.90;;;7.03;;
76693;SDS011;69667;52.136;5.424;2023-06-19T07:27:32;10.93;;;7.68;;
76693;SDS011;69667;52.136;5.424;2023-06-19T07:29:58;9.63;;;7.70;;
76693;SDS011;69667;52.136;5.424;2023-06-19T07:32:25;12.18;;;8.48;;
76693;SDS011;69667;52.136;5.424;2023-06-19T07:34:52;12.18;;;9.02;;
76693;SDS011;69667;52.136;5.424;2023-06-19T07:37:19;13.80;;;8.88;;
76693;SDS011;69667;52.136;5.424;2023-06-19T07:39:47;11.95;;;8.63;;
76693;SDS011;69667;52.136;5.424;2023-06-19T07:42:14;11.80;;;8.52;;
76693;SDS011;69667;52.136;5.424;2023-06-19T07:44:42;10.65;;;7.80;;
76693;SDS011;69667;52.136;5.424;2023-06-19T07:47:08;10.23;;;7.60;;
76693;SDS011;69667;52.136;5.424;2023-06-19T07:49:35;10.95;;;7.88;;
76693;SDS011;69667;52.136;5.424;2023-06-19T07:52:02;14.43;;;9.05;;
76693;SDS011;69667;52.136;5.424;2023-06-19T07:54:30;14.18;;;9.63;;
76693;SDS011;69667;52.136;5.424;2023-06-19T07:56:56;15.95;;;10.13;;
76693;SDS011;69667;52.136;5.424;2023-06-19T07:59:23;12.35;;;8.73;;
76693;SDS011;69667;52.136;5.424;2023-06-19T08:01:49;12.45;;;9.05;;
76693;SDS011;69667;52.136;5.424;2023-06-19T08:04:16;14.65;;;10.40;;
76693;SDS011;69667;52.136;5.424;2023-06-19T08:06:42;14.65;;;11.48;;
76693;SDS011;69667;52.136;5.424;2023-06-19T08:09:09;23.02;;;11.07;;
76693;SDS011;69667;52.136;5.424;2023-06-19T08:11:35;14.90;;;10.75;;
76693;SDS011;69667;52.136;5.424;2023-06-19T08:14:03;16.80;;;11.88;;
76693;SDS011;69667;52.136;5.424;2023-06-19T08:16:30;20.98;;;11.43;;
76693;SDS011;69667;52.136;5.424;2023-06-19T08:18:56;15.68;;;11.32;;
76693;SDS011;69667;52.136;5.424;2023-06-19T08:21:23;15.52;;;11.65;;
76693;SDS011;69667;52.136;5.424;2023-06-19T08:23:49;14.85;;;10.20;;
76693;SDS011;69667;52.136;5.424;2023-06-19T08:26:16;13.80;;;9.80;;
76693;SDS011;69667;52.136;5.424;2023-06-19T08:28:44;12.93;;;10.85;;
76693;SDS011;69667;52.136;5.424;2023-06-19T08:31:11;12.75;;;10.48;;
76693;SDS011;69667;52.136;5.424;2023-06-19T08:33:37;12.95;;;10.80;;
76693;SDS011;69667;52.136;5.424;2023-06-19T08:36:04;13.45;;;8.80;;
76693;SDS011;69667;52.136;5.424;2023-06-19T08:38:30;14.93;;;10.60;;
76693;SDS011;69667;52.136;5.424;2023-06-19T08:40:57;11.90;;;9.77;;
76693;SDS011;69667;52.136;5.424;2023-06-19T08:43:23;12.18;;;9.82;;
76693;SDS011;69667;52.136;5.424;2023-06-19T08:46:04;12.35;;;10.05;;
76693;SDS011;69667;52.136;5.424;2023-06-19T08:48:34;13.13;;;9.43;;
76693;SDS011;69667;52.136;5.424;2023-06-19T08:51:02;13.32;;;10.20;;
76693;SDS011;69667;52.136;5.424;2023-06-19T08:53:34;13.65;;;10.63;;
76693;SDS011;69667;52.136;5.424;2023-06-19T08:58:33;14.68;;;10.25;;
76693;SDS011;69667;52.136;5.424;2023-06-19T09:01:00;13.40;;;10.43;;
76693;SDS011;69667;52.136;5.424;2023-06-19T09:03:26;14.73;;;11.23;;
76693;SDS011;69667;52.136;5.424;2023-06-19T09:05:53;14.77;;;11.23;;
76693;SDS011;69667;52.136;5.424;2023-06-19T09:08:21;13.20;;;10.77;;
76693;SDS011;69667;52.136;5.424;2023-06-19T09:10:59;14.65;;;10.63;;
76693;SDS011;69667;52.136;5.424;2023-06-19T09:13:28;13.77;;;11.63;;
76693;SDS011;69667;52.136;5.424;2023-06-19T09:16:06;12.73;;;11.20;;
76693;SDS011;69667;52.136;5.424;2023-06-19T09:18:46;14.48;;;11.10;;
76693;SDS011;69667;52.136;5.424;2023-06-19T09:21:20;13.23;;;11.65;;
76693;SDS011;69667;52.136;5.424;2023-06-19T09:23:51;14.63;;;11.65;;
76693;SDS011;69667;52.136;5.424;2023-06-19T09:26:25;16.88;;;12.23;;
76693;SDS011;69667;52.136;5.424;2023-06-19T09:28:52;18.73;;;14.20;;
76693;SDS011;69667;52.136;5.424;2023-06-19T09:31:19;17.92;;;12.77;;
76693;SDS011;69667;52.136;5.424;2023-06-19T09:33:45;19.67;;;13.85;;
76693;SDS011;69667;52.136;5.424;2023-06-19T09:36:12;16.77;;;12.77;;
76693;SDS011;69667;52.136;5.424;2023-06-19T09:38:40;18.58;;;13.00;;
76693;SDS011;69667;52.136;5.424;2023-06-19T09:41:10;17.67;;;12.23;;
76693;SDS011;69667;52.136;5.424;2023-06-19T09:43:42;16.58;;;12.10;;
76693;SDS011;69667;52.136;5.424;2023-06-19T09:46:11;18.05;;;13.40;;
76693;SDS011;69667;52.136;5.424;2023-06-19T09:48:41;17.20;;;12.65;;
76693;SDS011;69667;52.136;5.424;2023-06-19T09:53:51;14.70;;;12.15;;
76693;SDS011;69667;52.136;5.424;2023-06-19T09:56:17;16.90;;;12.55;;
76693;SDS011;69667;52.136;5.424;2023-06-19T09:58:49;16.65;;;12.57;;
76693;SDS011;69667;52.136;5.424;2023-06-19T10:01:17;15.90;;;10.80;;
76693;SDS011;69667;52.136;5.424;2023-06-19T10:03:45;15.07;;;11.80;;
76693;SDS011;69667;52.136;5.424;2023-06-19T10:06:16;14.23;;;12.35;;
76693;SDS011;69667;52.136;5.424;2023-06-19T10:08:44;14.75;;;11.43;;
76693;SDS011;69667;52.136;5.424;2023-06-19T10:11:11;15.55;;;12.00;;
76693;SDS011;69667;52.136;5.424;2023-06-19T10:13:41;13.88;;;10.70;;
76693;SDS011;69667;52.136;5.424;2023-06-19T10:16:21;13.60;;;11.32;;
76693;SDS011;69667;52.136;5.424;2023-06-19T10:18:49;15.27;;;11.40;;
76693;SDS011;69667;52.136;5.424;2023-06-19T10:21:17;14.57;;;11.52;;
76693;SDS011;69667;52.136;5.424;2023-06-19T10:23:52;12.65;;;11.35;;
76693;SDS011;69667;52.136;5.424;2023-06-19T10:26:29;13.38;;;10.45;;
76693;SDS011;69667;52.136;5.424;2023-06-19T10:28:56;11.70;;;9.55;;
76693;SDS011;69667;52.136;5.424;2023-06-19T10:31:23;14.43;;;11.20;;
76693;SDS011;69667;52.136;5.424;2023-06-19T10:33:49;11.55;;;10.25;;
76693;SDS011;69667;52.136;5.424;2023-06-19T10:36:20;11.52;;;9.45;;
76693;SDS011;69667;52.136;5.424;2023-06-19T10:38:52;12.27;;;10.02;;
76693;SDS011;69667;52.136;5.424;2023-06-19T10:41:20;12.15;;;8.93;;
76693;SDS011;69667;52.136;5.424;2023-06-19T10:43:59;13.27;;;10.48;;
76693;SDS011;69667;52.136;5.424;2023-06-19T10:46:35;13.55;;;10.93;;
76693;SDS011;69667;52.136;5.424;2023-06-19T10:49:03;16.15;;;12.63;;
76693;SDS011;69667;52.136;5.424;2023-06-19T10:51:39;14.60;;;10.88;;
76693;SDS011;69667;52.136;5.424;2023-06-19T10:54:07;13.65;;;12.23;;
76693;SDS011;69667;52.136;5.424;2023-06-19T10:56:34;11.23;;;10.05;;
76693;SDS011;69667;52.136;5.424;2023-06-19T10:59:01;11.73;;;10.50;;
76693;SDS011;69667;52.136;5.424;2023-06-19T11:01:35;11.73;;;9.95;;
76693;SDS011;69667;52.136;5.424;2023-06-19T11:04:04;11.68;;;10.48;;
76693;SDS011;69667;52.136;5.424;2023-06-19T11:06:32;12.80;;;11.30;;
76693;SDS011;69667;52.136;5.424;2023-06-19T11:09:02;12.52;;;11.23;;
76693;SDS011;69667;52.136;5.424;2023-06-19T11:11:34;13.88;;;9.30;;
76693;SDS011;69667;52.136;5.424;2023-06-19T11:14:05;12.70;;;10.90;;
76693;SDS011;69667;52.136;5.424;2023-06-19T11:16:33;12.77;;;11.32;;
76693;SDS011;69667;52.136;5.424;2023-06-19T11:19:00;9.70;;;8.55;;
76693;SDS011;69667;52.136;5.424;2023-06-19T11:21:31;11.30;;;10.20;;
76693;SDS011;69667;52.136;5.424;2023-06-19T11:26:27;10.43;;;9.15;;
76693;SDS011;69667;52.136;5.424;2023-06-19T11:28:54;12.52;;;9.88;;
76693;SDS011;69667;52.136;5.424;2023-06-19T11:31:26;12.77;;;9.75;;
76693;SDS011;69667;52.136;5.424;2023-06-19T11:33:59;11.38;;;10.15;;
76693;SDS011;69667;52.136;5.424;2023-06-19T11:36:28;12.85;;;10.50;;
76693;SDS011;69667;52.136;5.424;2023-06-19T11:38:55;13.15;;;10.27;;
76693;SDS011;69667;52.136;5.424;2023-06-19T11:41:26;10.40;;;8.73;;
76693;SDS011;69667;52.136;5.424;2023-06-19T11:43:59;11.48;;;8.38;;
76693;SDS011;69667;52.136;5.424;2023-06-19T11:46:31;11.93;;;10.40;;
76693;SDS011;69667;52.136;5.424;2023-06-19T11:49:09;11.13;;;9.35;;
76693;SDS011;69667;52.136;5.424;2023-06-19T11:51:40;11.80;;;9.23;;
76693;SDS011;69667;52.136;5.424;2023-06-19T11:54:07;11.30;;;8.98;;
76693;SDS011;69667;52.136;5.424;2023-06-19T11:56:35;10.88;;;9.23;;
76693;SDS011;69667;52.136;5.424;2023-06-19T11:59:02;10.07;;;8.65;;
76693;SDS011;69667;52.136;5.424;2023-06-19T12:01:32;11.75;;;8.40;;
76693;SDS011;69667;52.136;5.424;2023-06-19T12:04:00;10.38;;;8.40;;
76693;SDS011;69667;52.136;5.424;2023-06-19T12:06:27;10.13;;;8.80;;
76693;SDS011;69667;52.136;5.424;2023-06-19T12:08:54;9.32;;;8.43;;
76693;SDS011;69667;52.136;5.424;2023-06-19T12:11:21;13.65;;;8.95;;
76693;SDS011;69667;52.136;5.424;2023-06-19T12:13:48;11.00;;;9.18;;
76693;SDS011;69667;52.136;5.424;2023-06-19T12:16:15;9.90;;;7.65;;
76693;SDS011;69667;52.136;5.424;2023-06-19T12:18:41;13.05;;;9.13;;
76693;SDS011;69667;52.136;5.424;2023-06-19T12:21:08;10.30;;;9.10;;
76693;SDS011;69667;52.136;5.424;2023-06-19T12:23:54;12.63;;;9.60;;
76693;SDS011;69667;52.136;5.424;2023-06-19T12:26:21;12.45;;;9.95;;
76693;SDS011;69667;52.136;5.424;2023-06-19T12:28:51;10.57;;;9.48;;
76693;SDS011;69667;52.136;5.424;2023-06-19T12:31:19;11.30;;;8.38;;
76693;SDS011;69667;52.136;5.424;2023-06-19T12:33:48;12.35;;;8.13;;
76693;SDS011;69667;52.136;5.424;2023-06-19T12:36:15;11.93;;;8.85;;
76693;SDS011;69667;52.136;5.424;2023-06-19T12:38:41;12.20;;;9.32;;
76693;SDS011;69667;52.136;5.424;2023-06-19T12:41:08;9.98;;;8.10;;
76693;SDS011;69667;52.136;5.424;2023-06-19T12:43:34;12.07;;;9.43;;
76693;SDS011;69667;52.136;5.424;2023-06-19T12:46:01;11.10;;;9.65;;
76693;SDS011;69667;52.136;5.424;2023-06-19T12:48:28;12.18;;;9.75;;
76693;SDS011;69667;52.136;5.424;2023-06-19T12:50:55;12.75;;;8.23;;
76693;SDS011;69667;52.136;5.424;2023-06-19T12:53:22;13.73;;;9.70;;
76693;SDS011;69667;52.136;5.424;2023-06-19T12:55:52;12.40;;;8.77;;
76693;SDS011;69667;52.136;5.424;2023-06-19T12:58:29;13.10;;;8.68;;
76693;SDS011;69667;52.136;5.424;2023-06-19T13:00:56;10.55;;;7.72;;
76693;SDS011;69667;52.136;5.424;2023-06-19T13:03:23;9.73;;;7.30;;
76693;SDS011;69667;52.136;5.424;2023-06-19T13:05:49;8.80;;;7.47;;
76693;SDS011;69667;52.136;5.424;2023-06-19T13:08:16;10.68;;;8.02;;
76693;SDS011;69667;52.136;5.424;2023-06-19T13:10:43;11.52;;;8.60;;
76693;SDS011;69667;52.136;5.424;2023-06-19T13:13:09;9.43;;;7.95;;
76693;SDS011;69667;52.136;5.424;2023-06-19T13:15:39;9.68;;;7.93;;
76693;SDS011;69667;52.136;5.424;2023-06-19T13:18:06;11.20;;;9.02;;
76693;SDS011;69667;52.136;5.424;2023-06-19T13:20:33;11.98;;;8.98;;
76693;SDS011;69667;52.136;5.424;2023-06-19T13:22:59;10.88;;;8.63;;
76693;SDS011;69667;52.136;5.424;2023-06-19T13:25:26;10.02;;;8.27;;
76693;SDS011;69667;52.136;5.424;2023-06-19T13:27:53;9.48;;;7.78;;
76693;SDS011;69667;52.136;5.424;2023-06-19T13:30:19;12.00;;;7.70;;
76693;SDS011;69667;52.136;5.424;2023-06-19T13:32:46;10.90;;;7.78;;
76693;SDS011;69667;52.136;5.424;2023-06-19T13:35:13;9.77;;;7.78;;
76693;SDS011;69667;52.136;5.424;2023-06-19T13:37:40;8.00;;;6.43;;
76693;SDS011;69667;52.136;5.424;2023-06-19T13:40:07;9.00;;;6.68;;
76693;SDS011;69667;52.136;5.424;2023-06-19T13:42:34;8.55;;;6.50;;
76693;SDS011;69667;52.136;5.424;2023-06-19T13:45:02;8.77;;;7.00;;
76693;SDS011;69667;52.136;5.424;2023-06-19T13:47:29;9.45;;;7.30;;
76693;SDS011;69667;52.136;5.424;2023-06-19T13:49:56;9.80;;;7.50;;
76693;SDS011;69667;52.136;5.424;2023-06-19T13:52:23;8.90;;;6.95;;
76693;SDS011;69667;52.136;5.424;2023-06-19T13:54:49;12.57;;;6.80;;
76693;SDS011;69667;52.136;5.424;2023-06-19T13:57:19;7.40;;;6.20;;
76693;SDS011;69667;52.136;5.424;2023-06-19T13:59:46;9.52;;;5.53;;
76693;SDS011;69667;52.136;5.424;2023-06-19T14:02:16;7.75;;;6.80;;
76693;SDS011;69667;52.136;5.424;2023-06-19T14:04:45;7.93;;;6.50;;
76693;SDS011;69667;52.136;5.424;2023-06-19T14:07:12;9.93;;;6.90;;
76693;SDS011;69667;52.136;5.424;2023-06-19T14:09:38;8.13;;;6.70;;
76693;SDS011;69667;52.136;5.424;2023-06-19T14:12:05;9.13;;;6.47;;
76693;SDS011;69667;52.136;5.424;2023-06-19T14:14:32;7.30;;;6.38;;
76693;SDS011;69667;52.136;5.424;2023-06-19T14:16:59;10.13;;;6.80;;
76693;SDS011;69667;52.136;5.424;2023-06-19T14:19:26;7.82;;;6.53;;
76693;SDS011;69667;52.136;5.424;2023-06-19T14:21:55;8.38;;;6.28;;
76693;SDS011;69667;52.136;5.424;2023-06-19T14:24:21;7.40;;;6.30;;
76693;SDS011;69667;52.136;5.424;2023-06-19T14:29:16;10.98;;;6.20;;
76693;SDS011;69667;52.136;5.424;2023-06-19T14:31:45;8.40;;;6.00;;
76693;SDS011;69667;52.136;5.424;2023-06-19T14:34:11;7.68;;;5.80;;
76693;SDS011;69667;52.136;5.424;2023-06-19T14:36:38;9.43;;;5.95;;
76693;SDS011;69667;52.136;5.424;2023-06-19T14:39:05;9.77;;;5.85;;
76693;SDS011;69667;52.136;5.424;2023-06-19T14:41:31;10.63;;;5.95;;
76693;SDS011;69667;52.136;5.424;2023-06-19T14:43:58;7.75;;;5.72;;
76693;SDS011;69667;52.136;5.424;2023-06-19T14:46:25;7.78;;;5.82;;
76693;SDS011;69667;52.136;5.424;2023-06-19T14:48:58;6.03;;;5.18;;
76693;SDS011;69667;52.136;5.424;2023-06-19T14:51:27;8.57;;;6.13;;
76693;SDS011;69667;52.136;5.424;2023-06-19T14:53:53;7.95;;;6.00;;
76693;SDS011;69667;52.136;5.424;2023-06-19T14:56:20;7.20;;;5.72;;
76693;SDS011;69667;52.136;5.424;2023-06-19T14:58:47;7.57;;;5.75;;